COR weather

Ingeniero Ambrosio Taravella Airport
Cordoba, Córdoba Province, Argentina

Public forecast

Using degrees Celsius for public forecast. Weather courtesy of forecast.io.

METAR (pilot weather report)

Retrieved 2019/06/17 22:00 UTC (52 minutes ago):

SACO 172200Z 05008KT 5000 -DZ BR SCT007 SCT030 BKN080 10/08 Q1015 NOSIG

TAF (pilot weather forecast)

Retrieved 2019/06/17 18:00 UTC (5 hours ago):

TAF SACO 171700Z 1718/1818 05020KT 9999 BKN020 TX16/1818Z TN04/1810Z BECMG 1800/1803 32005KT 4000 BR BKN010 TEMPO 1808/1811 32005KT 1200 BR BKN010 BECMG 1813/1815 23005KT 9999 BKN025